sensor_id;sensor_type;location;lat;lon;timestamp;P1;durP1;ratioP1;P2;durP2;ratioP2
53497;SDS011;39382;47.168;16.008;2024-02-26T00:01:28;3.42;;;1.40;;
53497;SDS011;39382;47.168;16.008;2024-02-26T00:03:57;1.27;;;1.05;;
53497;SDS011;39382;47.168;16.008;2024-02-26T00:06:24;2.15;;;1.75;;
53497;SDS011;39382;47.168;16.008;2024-02-26T00:08:50;2.03;;;1.20;;
53497;SDS011;39382;47.168;16.008;2024-02-26T00:11:16;6.57;;;2.83;;
53497;SDS011;39382;47.168;16.008;2024-02-26T00:13:41;5.38;;;2.45;;
53497;SDS011;39382;47.168;16.008;2024-02-26T00:16:07;4.68;;;2.60;;
53497;SDS011;39382;47.168;16.008;2024-02-26T00:18:33;9.57;;;2.88;;
53497;SDS011;39382;47.168;16.008;2024-02-26T00:20:59;8.13;;;2.38;;
53497;SDS011;39382;47.168;16.008;2024-02-26T00:23:25;5.95;;;2.47;;
53497;SDS011;39382;47.168;16.008;2024-02-26T00:25:52;9.77;;;2.78;;
53497;SDS011;39382;47.168;16.008;2024-02-26T00:28:17;4.95;;;2.45;;
53497;SDS011;39382;47.168;16.008;2024-02-26T00:30:45;3.10;;;2.33;;
53497;SDS011;39382;47.168;16.008;2024-02-26T00:33:10;5.57;;;2.35;;
53497;SDS011;39382;47.168;16.008;2024-02-26T00:35:36;7.40;;;2.78;;
53497;SDS011;39382;47.168;16.008;2024-02-26T00:38:02;5.80;;;2.88;;
53497;SDS011;39382;47.168;16.008;2024-02-26T00:40:28;9.18;;;3.25;;
53497;SDS011;39382;47.168;16.008;2024-02-26T00:42:54;4.63;;;2.58;;
53497;SDS011;39382;47.168;16.008;2024-02-26T00:45:20;5.70;;;2.33;;
53497;SDS011;39382;47.168;16.008;2024-02-26T00:47:45;4.85;;;2.35;;
53497;SDS011;39382;47.168;16.008;2024-02-26T00:50:12;6.22;;;3.13;;
53497;SDS011;39382;47.168;16.008;2024-02-26T00:52:38;4.18;;;1.83;;
53497;SDS011;39382;47.168;16.008;2024-02-26T00:55:04;4.55;;;2.47;;
53497;SDS011;39382;47.168;16.008;2024-02-26T00:57:31;5.25;;;2.47;;
53497;SDS011;39382;47.168;16.008;2024-02-26T00:59:56;5.35;;;2.65;;
53497;SDS011;39382;47.168;16.008;2024-02-26T01:02:22;7.35;;;2.20;;
53497;SDS011;39382;47.168;16.008;2024-02-26T01:04:48;2.33;;;2.13;;
53497;SDS011;39382;47.168;16.008;2024-02-26T01:07:13;3.97;;;2.17;;
53497;SDS011;39382;47.168;16.008;2024-02-26T01:09:39;6.97;;;1.73;;
53497;SDS011;39382;47.168;16.008;2024-02-26T01:12:05;3.08;;;2.03;;
53497;SDS011;39382;47.168;16.008;2024-02-26T01:14:31;5.75;;;2.70;;
53497;SDS011;39382;47.168;16.008;2024-02-26T01:16:56;4.70;;;2.20;;
53497;SDS011;39382;47.168;16.008;2024-02-26T01:19:22;3.78;;;1.98;;
53497;SDS011;39382;47.168;16.008;2024-02-26T01:21:48;4.85;;;2.65;;
53497;SDS011;39382;47.168;16.008;2024-02-26T01:24:13;4.85;;;2.53;;
53497;SDS011;39382;47.168;16.008;2024-02-26T01:26:40;4.80;;;2.25;;
53497;SDS011;39382;47.168;16.008;2024-02-26T01:29:06;3.03;;;1.73;;
53497;SDS011;39382;47.168;16.008;2024-02-26T01:31:32;6.28;;;2.47;;
53497;SDS011;39382;47.168;16.008;2024-02-26T01:33:57;3.60;;;2.05;;
53497;SDS011;39382;47.168;16.008;2024-02-26T01:36:23;8.38;;;2.10;;
53497;SDS011;39382;47.168;16.008;2024-02-26T01:38:48;4.88;;;2.40;;
53497;SDS011;39382;47.168;16.008;2024-02-26T01:41:14;3.15;;;1.98;;
53497;SDS011;39382;47.168;16.008;2024-02-26T01:43:40;3.95;;;2.05;;
53497;SDS011;39382;47.168;16.008;2024-02-26T01:46:06;4.32;;;2.00;;
53497;SDS011;39382;47.168;16.008;2024-02-26T01:48:36;4.68;;;2.00;;
53497;SDS011;39382;47.168;16.008;2024-02-26T01:51:01;2.33;;;1.75;;
53497;SDS011;39382;47.168;16.008;2024-02-26T01:53:27;5.18;;;1.52;;
53497;SDS011;39382;47.168;16.008;2024-02-26T01:55:53;5.18;;;1.85;;
53497;SDS011;39382;47.168;16.008;2024-02-26T01:58:19;2.28;;;1.20;;
53497;SDS011;39382;47.168;16.008;2024-02-26T02:00:45;6.13;;;2.15;;
53497;SDS011;39382;47.168;16.008;2024-02-26T02:03:11;2.47;;;1.40;;
53497;SDS011;39382;47.168;16.008;2024-02-26T02:05:37;2.88;;;1.67;;
53497;SDS011;39382;47.168;16.008;2024-02-26T02:08:07;2.33;;;1.40;;
53497;SDS011;39382;47.168;16.008;2024-02-26T02:10:33;4.93;;;1.98;;
53497;SDS011;39382;47.168;16.008;2024-02-26T02:13:00;2.33;;;1.60;;
53497;SDS011;39382;47.168;16.008;2024-02-26T02:15:25;6.60;;;2.58;;
53497;SDS011;39382;47.168;16.008;2024-02-26T02:17:51;5.03;;;2.10;;
53497;SDS011;39382;47.168;16.008;2024-02-26T02:20:17;6.18;;;2.53;;
53497;SDS011;39382;47.168;16.008;2024-02-26T02:22:44;9.30;;;2.67;;
53497;SDS011;39382;47.168;16.008;2024-02-26T02:25:10;2.25;;;2.08;;
53497;SDS011;39382;47.168;16.008;2024-02-26T02:27:36;3.75;;;2.25;;
53497;SDS011;39382;47.168;16.008;2024-02-26T02:30:01;5.90;;;3.25;;
53497;SDS011;39382;47.168;16.008;2024-02-26T02:32:28;5.03;;;2.35;;
53497;SDS011;39382;47.168;16.008;2024-02-26T02:34:55;5.35;;;1.98;;
53497;SDS011;39382;47.168;16.008;2024-02-26T02:37:21;4.72;;;2.50;;
53497;SDS011;39382;47.168;16.008;2024-02-26T02:39:47;3.50;;;2.00;;
53497;SDS011;39382;47.168;16.008;2024-02-26T02:42:12;6.65;;;2.47;;
53497;SDS011;39382;47.168;16.008;2024-02-26T02:44:38;8.45;;;2.60;;
53497;SDS011;39382;47.168;16.008;2024-02-26T02:47:04;4.13;;;2.40;;
53497;SDS011;39382;47.168;16.008;2024-02-26T02:49:29;7.47;;;3.00;;
53497;SDS011;39382;47.168;16.008;2024-02-26T02:51:55;6.82;;;2.60;;
53497;SDS011;39382;47.168;16.008;2024-02-26T02:54:22;5.97;;;2.55;;
53497;SDS011;39382;47.168;16.008;2024-02-26T02:56:48;3.47;;;2.78;;
53497;SDS011;39382;47.168;16.008;2024-02-26T02:59:13;5.07;;;2.25;;
53497;SDS011;39382;47.168;16.008;2024-02-26T03:01:39;2.28;;;1.50;;
53497;SDS011;39382;47.168;16.008;2024-02-26T03:04:05;5.43;;;2.65;;
53497;SDS011;39382;47.168;16.008;2024-02-26T03:06:30;2.75;;;2.00;;
53497;SDS011;39382;47.168;16.008;2024-02-26T03:08:56;6.82;;;2.13;;
53497;SDS011;39382;47.168;16.008;2024-02-26T03:11:22;2.83;;;2.13;;
53497;SDS011;39382;47.168;16.008;2024-02-26T03:13:47;6.43;;;2.67;;
53497;SDS011;39382;47.168;16.008;2024-02-26T03:16:13;6.85;;;2.92;;
53497;SDS011;39382;47.168;16.008;2024-02-26T03:18:39;8.18;;;2.75;;
53497;SDS011;39382;47.168;16.008;2024-02-26T03:21:05;5.07;;;2.55;;
53497;SDS011;39382;47.168;16.008;2024-02-26T03:23:31;7.53;;;3.05;;
53497;SDS011;39382;47.168;16.008;2024-02-26T03:26:01;6.85;;;2.95;;
53497;SDS011;39382;47.168;16.008;2024-02-26T03:28:29;3.45;;;2.40;;
53497;SDS011;39382;47.168;16.008;2024-02-26T03:30:58;4.35;;;2.60;;
53497;SDS011;39382;47.168;16.008;2024-02-26T03:33:24;6.40;;;3.75;;
53497;SDS011;39382;47.168;16.008;2024-02-26T03:35:49;8.70;;;3.53;;
53497;SDS011;39382;47.168;16.008;2024-02-26T03:38:15;3.97;;;2.85;;
53497;SDS011;39382;47.168;16.008;2024-02-26T03:40:41;6.82;;;3.00;;
53497;SDS011;39382;47.168;16.008;2024-02-26T03:43:06;4.57;;;3.25;;
53497;SDS011;39382;47.168;16.008;2024-02-26T03:45:32;4.07;;;2.53;;
53497;SDS011;39382;47.168;16.008;2024-02-26T03:47:58;5.15;;;2.10;;
53497;SDS011;39382;47.168;16.008;2024-02-26T03:50:24;2.72;;;2.30;;
53497;SDS011;39382;47.168;16.008;2024-02-26T03:52:50;4.20;;;2.88;;
53497;SDS011;39382;47.168;16.008;2024-02-26T03:55:15;6.30;;;3.50;;
53497;SDS011;39382;47.168;16.008;2024-02-26T03:57:46;3.80;;;2.30;;
53497;SDS011;39382;47.168;16.008;2024-02-26T04:00:12;12.32;;;3.45;;
53497;SDS011;39382;47.168;16.008;2024-02-26T04:02:38;5.78;;;2.42;;
53497;SDS011;39382;47.168;16.008;2024-02-26T04:05:04;3.75;;;2.38;;
53497;SDS011;39382;47.168;16.008;2024-02-26T04:07:30;2.88;;;2.60;;
53497;SDS011;39382;47.168;16.008;2024-02-26T04:09:55;4.20;;;2.05;;
53497;SDS011;39382;47.168;16.008;2024-02-26T04:12:22;3.83;;;2.83;;
53497;SDS011;39382;47.168;16.008;2024-02-26T04:14:47;3.85;;;2.28;;
53497;SDS011;39382;47.168;16.008;2024-02-26T04:17:13;7.82;;;3.00;;
53497;SDS011;39382;47.168;16.008;2024-02-26T04:19:38;6.10;;;2.35;;
53497;SDS011;39382;47.168;16.008;2024-02-26T04:22:04;3.17;;;2.50;;
53497;SDS011;39382;47.168;16.008;2024-02-26T04:24:30;2.85;;;2.55;;
53497;SDS011;39382;47.168;16.008;2024-02-26T04:26:56;4.38;;;2.10;;
53497;SDS011;39382;47.168;16.008;2024-02-26T04:29:21;2.75;;;2.47;;
53497;SDS011;39382;47.168;16.008;2024-02-26T04:31:47;5.63;;;2.20;;
53497;SDS011;39382;47.168;16.008;2024-02-26T04:34:13;3.22;;;2.47;;
53497;SDS011;39382;47.168;16.008;2024-02-26T04:36:38;6.20;;;2.25;;
53497;SDS011;39382;47.168;16.008;2024-02-26T04:39:04;5.57;;;2.25;;
53497;SDS011;39382;47.168;16.008;2024-02-26T04:41:30;7.10;;;2.83;;
53497;SDS011;39382;47.168;16.008;2024-02-26T04:43:55;6.97;;;2.33;;
53497;SDS011;39382;47.168;16.008;2024-02-26T04:46:21;5.25;;;2.00;;
53497;SDS011;39382;47.168;16.008;2024-02-26T04:48:47;2.13;;;1.88;;
53497;SDS011;39382;47.168;16.008;2024-02-26T04:51:12;2.90;;;2.22;;
53497;SDS011;39382;47.168;16.008;2024-02-26T04:53:38;3.53;;;1.85;;
53497;SDS011;39382;47.168;16.008;2024-02-26T04:56:04;3.05;;;2.05;;
53497;SDS011;39382;47.168;16.008;2024-02-26T04:58:30;2.78;;;2.42;;
53497;SDS011;39382;47.168;16.008;2024-02-26T05:00:55;6.75;;;3.33;;
53497;SDS011;39382;47.168;16.008;2024-02-26T05:03:21;6.32;;;3.30;;
53497;SDS011;39382;47.168;16.008;2024-02-26T05:05:47;2.78;;;2.20;;
53497;SDS011;39382;47.168;16.008;2024-02-26T05:08:12;7.22;;;2.20;;
53497;SDS011;39382;47.168;16.008;2024-02-26T05:10:38;4.95;;;2.33;;
53497;SDS011;39382;47.168;16.008;2024-02-26T05:13:08;3.13;;;1.85;;
53497;SDS011;39382;47.168;16.008;2024-02-26T05:15:34;3.75;;;2.50;;
53497;SDS011;39382;47.168;16.008;2024-02-26T05:18:00;2.70;;;2.22;;
53497;SDS011;39382;47.168;16.008;2024-02-26T05:20:26;3.72;;;2.80;;
53497;SDS011;39382;47.168;16.008;2024-02-26T05:22:52;10.25;;;5.60;;
53497;SDS011;39382;47.168;16.008;2024-02-26T05:25:17;10.70;;;5.35;;
53497;SDS011;39382;47.168;16.008;2024-02-26T05:27:43;6.70;;;5.30;;
53497;SDS011;39382;47.168;16.008;2024-02-26T05:30:09;5.57;;;4.25;;
53497;SDS011;39382;47.168;16.008;2024-02-26T05:32:36;6.90;;;4.10;;
53497;SDS011;39382;47.168;16.008;2024-02-26T05:35:02;14.95;;;5.65;;
53497;SDS011;39382;47.168;16.008;2024-02-26T05:37:28;13.75;;;6.07;;
53497;SDS011;39382;47.168;16.008;2024-02-26T05:39:54;13.68;;;6.78;;
53497;SDS011;39382;47.168;16.008;2024-02-26T05:42:20;10.15;;;6.22;;
53497;SDS011;39382;47.168;16.008;2024-02-26T05:44:46;10.90;;;5.63;;
53497;SDS011;39382;47.168;16.008;2024-02-26T05:47:12;7.68;;;4.32;;
53497;SDS011;39382;47.168;16.008;2024-02-26T05:49:38;17.00;;;6.25;;
53497;SDS011;39382;47.168;16.008;2024-02-26T05:52:04;8.50;;;4.38;;
53497;SDS011;39382;47.168;16.008;2024-02-26T05:54:30;9.65;;;4.75;;
53497;SDS011;39382;47.168;16.008;2024-02-26T05:56:57;6.93;;;4.05;;
53497;SDS011;39382;47.168;16.008;2024-02-26T05:59:22;4.95;;;4.45;;
53497;SDS011;39382;47.168;16.008;2024-02-26T06:01:49;7.38;;;2.75;;
53497;SDS011;39382;47.168;16.008;2024-02-26T06:04:14;9.77;;;4.15;;
53497;SDS011;39382;47.168;16.008;2024-02-26T06:06:42;8.35;;;3.70;;
53497;SDS011;39382;47.168;16.008;2024-02-26T06:09:07;5.80;;;3.45;;
53497;SDS011;39382;47.168;16.008;2024-02-26T06:11:33;7.05;;;3.10;;
53497;SDS011;39382;47.168;16.008;2024-02-26T06:13:58;31.05;;;9.40;;
53497;SDS011;39382;47.168;16.008;2024-02-26T06:16:24;31.55;;;10.15;;
53497;SDS011;39382;47.168;16.008;2024-02-26T06:18:50;23.10;;;8.95;;
53497;SDS011;39382;47.168;16.008;2024-02-26T06:21:15;17.65;;;8.65;;
53497;SDS011;39382;47.168;16.008;2024-02-26T06:23:41;11.57;;;6.18;;
53497;SDS011;39382;47.168;16.008;2024-02-26T06:26:07;11.90;;;4.90;;
53497;SDS011;39382;47.168;16.008;2024-02-26T06:28:32;8.70;;;4.93;;
53497;SDS011;39382;47.168;16.008;2024-02-26T06:31:00;5.82;;;3.70;;
53497;SDS011;39382;47.168;16.008;2024-02-26T06:33:26;9.00;;;3.72;;
53497;SDS011;39382;47.168;16.008;2024-02-26T06:35:52;12.00;;;5.88;;
53497;SDS011;39382;47.168;16.008;2024-02-26T06:38:17;14.63;;;4.40;;
53497;SDS011;39382;47.168;16.008;2024-02-26T06:40:46;9.65;;;3.85;;
53497;SDS011;39382;47.168;16.008;2024-02-26T06:43:12;8.38;;;3.92;;
53497;SDS011;39382;47.168;16.008;2024-02-26T06:45:37;12.15;;;4.32;;
53497;SDS011;39382;47.168;16.008;2024-02-26T06:48:03;7.85;;;4.13;;
53497;SDS011;39382;47.168;16.008;2024-02-26T06:50:29;10.73;;;7.03;;
53497;SDS011;39382;47.168;16.008;2024-02-26T06:52:54;9.35;;;4.60;;
53497;SDS011;39382;47.168;16.008;2024-02-26T06:55:20;6.00;;;3.72;;
53497;SDS011;39382;47.168;16.008;2024-02-26T06:57:45;7.00;;;3.20;;
53497;SDS011;39382;47.168;16.008;2024-02-26T07:00:11;9.02;;;4.22;;
53497;SDS011;39382;47.168;16.008;2024-02-26T07:02:39;12.07;;;3.30;;
53497;SDS011;39382;47.168;16.008;2024-02-26T07:05:06;7.72;;;2.92;;
53497;SDS011;39382;47.168;16.008;2024-02-26T07:07:32;8.70;;;3.38;;
53497;SDS011;39382;47.168;16.008;2024-02-26T07:09:58;12.35;;;5.53;;
53497;SDS011;39382;47.168;16.008;2024-02-26T07:12:24;12.73;;;4.68;;
53497;SDS011;39382;47.168;16.008;2024-02-26T07:14:49;14.88;;;5.35;;
53497;SDS011;39382;47.168;16.008;2024-02-26T07:17:15;14.13;;;5.97;;
53497;SDS011;39382;47.168;16.008;2024-02-26T07:19:41;14.82;;;5.57;;
53497;SDS011;39382;47.168;16.008;2024-02-26T07:22:07;21.40;;;6.13;;
53497;SDS011;39382;47.168;16.008;2024-02-26T07:24:33;12.52;;;5.45;;
53497;SDS011;39382;47.168;16.008;2024-02-26T07:26:58;13.68;;;5.35;;
53497;SDS011;39382;47.168;16.008;2024-02-26T07:29:24;15.40;;;5.50;;
53497;SDS011;39382;47.168;16.008;2024-02-26T07:31:50;8.15;;;4.63;;
53497;SDS011;39382;47.168;16.008;2024-02-26T07:34:15;9.25;;;4.15;;
53497;SDS011;39382;47.168;16.008;2024-02-26T07:36:42;9.82;;;3.83;;
53497;SDS011;39382;47.168;16.008;2024-02-26T07:39:07;6.70;;;4.07;;
53497;SDS011;39382;47.168;16.008;2024-02-26T07:41:33;10.82;;;4.03;;
53497;SDS011;39382;47.168;16.008;2024-02-26T07:43:59;9.43;;;4.57;;
53497;SDS011;39382;47.168;16.008;2024-02-26T07:46:25;7.32;;;3.88;;
53497;SDS011;39382;47.168;16.008;2024-02-26T07:48:50;8.88;;;4.63;;
53497;SDS011;39382;47.168;16.008;2024-02-26T07:51:16;7.57;;;4.25;;
53497;SDS011;39382;47.168;16.008;2024-02-26T07:53:42;8.25;;;3.78;;
53497;SDS011;39382;47.168;16.008;2024-02-26T07:56:08;7.53;;;3.83;;
53497;SDS011;39382;47.168;16.008;2024-02-26T07:58:34;6.07;;;3.35;;
53497;SDS011;39382;47.168;16.008;2024-02-26T08:01:00;8.65;;;4.65;;
53497;SDS011;39382;47.168;16.008;2024-02-26T08:03:26;11.57;;;4.30;;
53497;SDS011;39382;47.168;16.008;2024-02-26T08:05:52;6.60;;;4.35;;
53497;SDS011;39382;47.168;16.008;2024-02-26T08:08:17;19.63;;;11.70;;
53497;SDS011;39382;47.168;16.008;2024-02-26T08:10:43;9.48;;;7.63;;
53497;SDS011;39382;47.168;16.008;2024-02-26T08:13:09;16.80;;;7.00;;
53497;SDS011;39382;47.168;16.008;2024-02-26T08:15:35;6.55;;;4.57;;
53497;SDS011;39382;47.168;16.008;2024-02-26T08:18:02;6.40;;;3.63;;
53497;SDS011;39382;47.168;16.008;2024-02-26T08:20:29;7.13;;;3.95;;
53497;SDS011;39382;47.168;16.008;2024-02-26T08:22:56;10.75;;;4.05;;
53497;SDS011;39382;47.168;16.008;2024-02-26T08:25:22;6.28;;;3.78;;
53497;SDS011;39382;47.168;16.008;2024-02-26T08:27:48;6.95;;;3.50;;
53497;SDS011;39382;47.168;16.008;2024-02-26T08:30:14;11.38;;;3.63;;
53497;SDS011;39382;47.168;16.008;2024-02-26T08:32:51;21.80;;;12.13;;
53497;SDS011;39382;47.168;16.008;2024-02-26T08:35:17;8.35;;;4.70;;
53497;SDS011;39382;47.168;16.008;2024-02-26T08:37:46;6.55;;;3.63;;
53497;SDS011;39382;47.168;16.008;2024-02-26T08:40:12;10.15;;;6.65;;
53497;SDS011;39382;47.168;16.008;2024-02-26T08:42:38;12.00;;;6.97;;
53497;SDS011;39382;47.168;16.008;2024-02-26T08:45:04;12.18;;;5.82;;
53497;SDS011;39382;47.168;16.008;2024-02-26T08:47:30;10.15;;;6.82;;
53497;SDS011;39382;47.168;16.008;2024-02-26T08:49:56;5.72;;;3.38;;
53497;SDS011;39382;47.168;16.008;2024-02-26T08:52:21;8.85;;;2.83;;
53497;SDS011;39382;47.168;16.008;2024-02-26T08:54:48;14.50;;;10.30;;
53497;SDS011;39382;47.168;16.008;2024-02-26T08:57:14;12.98;;;7.30;;
53497;SDS011;39382;47.168;16.008;2024-02-26T08:59:40;4.90;;;3.58;;
53497;SDS011;39382;47.168;16.008;2024-02-26T09:02:06;9.20;;;3.03;;
53497;SDS011;39382;47.168;16.008;2024-02-26T09:04:33;7.10;;;3.63;;
53497;SDS011;39382;47.168;16.008;2024-02-26T09:06:59;5.88;;;3.85;;
53497;SDS011;39382;47.168;16.008;2024-02-26T09:09:24;7.38;;;3.25;;
53497;SDS011;39382;47.168;16.008;2024-02-26T09:11:51;4.72;;;3.45;;
53497;SDS011;39382;47.168;16.008;2024-02-26T09:14:17;3.38;;;1.88;;
53497;SDS011;39382;47.168;16.008;2024-02-26T09:16:43;2.65;;;2.05;;
53497;SDS011;39382;47.168;16.008;2024-02-26T09:19:09;6.53;;;2.13;;
53497;SDS011;39382;47.168;16.008;2024-02-26T09:21:34;8.23;;;4.85;;
53497;SDS011;39382;47.168;16.008;2024-02-26T09:24:00;2.83;;;1.92;;
53497;SDS011;39382;47.168;16.008;2024-02-26T09:26:25;2.03;;;1.48;;
53497;SDS011;39382;47.168;16.008;2024-02-26T09:28:51;5.97;;;2.78;;
53497;SDS011;39382;47.168;16.008;2024-02-26T09:31:17;2.00;;;1.45;;
53497;SDS011;39382;47.168;16.008;2024-02-26T09:33:43;4.35;;;2.22;;
53497;SDS011;39382;47.168;16.008;2024-02-26T09:36:09;3.22;;;2.17;;
53497;SDS011;39382;47.168;16.008;2024-02-26T09:38:36;12.93;;;7.13;;
53497;SDS011;39382;47.168;16.008;2024-02-26T09:41:03;5.35;;;2.70;;
53497;SDS011;39382;47.168;16.008;2024-02-26T09:43:36;8.23;;;3.25;;
53497;SDS011;39382;47.168;16.008;2024-02-26T09:46:04;9.63;;;3.28;;
53497;SDS011;39382;47.168;16.008;2024-02-26T09:48:31;5.47;;;2.67;;
53497;SDS011;39382;47.168;16.008;2024-02-26T09:50:59;1.58;;;1.48;;
53497;SDS011;39382;47.168;16.008;2024-02-26T09:53:27;1.23;;;1.00;;
53497;SDS011;39382;47.168;16.008;2024-02-26T09:55:57;19.92;;;9.40;;
53497;SDS011;39382;47.168;16.008;2024-02-26T09:58:23;7.22;;;3.60;;
53497;SDS011;39382;47.168;16.008;2024-02-26T10:00:51;3.38;;;2.10;;
53497;SDS011;39382;47.168;16.008;2024-02-26T10:03:22;1.50;;;1.40;;
53497;SDS011;39382;47.168;16.008;2024-02-26T10:05:56;2.90;;;1.70;;
53497;SDS011;39382;47.168;16.008;2024-02-26T10:08:22;4.95;;;1.60;;
53497;SDS011;39382;47.168;16.008;2024-02-26T10:10:49;3.55;;;1.58;;
53497;SDS011;39382;47.168;16.008;2024-02-26T10:13:15;3.88;;;2.70;;
53497;SDS011;39382;47.168;16.008;2024-02-26T10:15:41;2.50;;;1.60;;
53497;SDS011;39382;47.168;16.008;2024-02-26T10:18:06;5.10;;;1.58;;
53497;SDS011;39382;47.168;16.008;2024-02-26T10:20:32;3.53;;;1.83;;
53497;SDS011;39382;47.168;16.008;2024-02-26T10:22:58;2.38;;;1.50;;
53497;SDS011;39382;47.168;16.008;2024-02-26T10:25:27;11.35;;;2.25;;
53497;SDS011;39382;47.168;16.008;2024-02-26T10:27:53;4.00;;;0.90;;
53497;SDS011;39382;47.168;16.008;2024-02-26T10:30:19;1.38;;;0.93;;
53497;SDS011;39382;47.168;16.008;2024-02-26T10:32:46;3.45;;;1.25;;
53497;SDS011;39382;47.168;16.008;2024-02-26T10:35:14;2.05;;;1.00;;
53497;SDS011;39382;47.168;16.008;2024-02-26T10:37:40;3.88;;;2.65;;
53497;SDS011;39382;47.168;16.008;2024-02-26T10:40:10;4.35;;;2.13;;
53497;SDS011;39382;47.168;16.008;2024-02-26T10:42:36;2.13;;;1.45;;
53497;SDS011;39382;47.168;16.008;2024-02-26T10:45:03;4.45;;;1.70;;
53497;SDS011;39382;47.168;16.008;2024-02-26T10:47:30;1.85;;;1.02;;
53497;SDS011;39382;47.168;16.008;2024-02-26T10:49:58;1.20;;;1.15;;
53497;SDS011;39382;47.168;16.008;2024-02-26T10:52:24;2.33;;;1.70;;
53497;SDS011;39382;47.168;16.008;2024-02-26T10:54:53;6.03;;;2.95;;
53497;SDS011;39382;47.168;16.008;2024-02-26T10:57:21;3.95;;;1.77;;
53497;SDS011;39382;47.168;16.008;2024-02-26T10:59:47;2.70;;;2.20;;
53497;SDS011;39382;47.168;16.008;2024-02-26T11:02:14;3.67;;;0.77;;
53497;SDS011;39382;47.168;16.008;2024-02-26T11:04:40;3.22;;;1.40;;
53497;SDS011;39382;47.168;16.008;2024-02-26T11:07:06;3.67;;;3.10;;
53497;SDS011;39382;47.168;16.008;2024-02-26T11:09:35;2.03;;;1.13;;
53497;SDS011;39382;47.168;16.008;2024-02-26T11:12:06;0.77;;;0.60;;
53497;SDS011;39382;47.168;16.008;2024-02-26T11:14:36;3.42;;;2.03;;
53497;SDS011;39382;47.168;16.008;2024-02-26T11:17:09;2.83;;;1.42;;
53497;SDS011;39382;47.168;16.008;2024-02-26T11:19:36;4.30;;;1.70;;
53497;SDS011;39382;47.168;16.008;2024-02-26T11:22:03;13.38;;;7.07;;
53497;SDS011;39382;47.168;16.008;2024-02-26T11:24:29;7.10;;;3.85;;
53497;SDS011;39382;47.168;16.008;2024-02-26T11:26:57;6.22;;;1.75;;
53497;SDS011;39382;47.168;16.008;2024-02-26T11:29:27;3.13;;;2.83;;
53497;SDS011;39382;47.168;16.008;2024-02-26T11:32:12;4.60;;;1.70;;
53497;SDS011;39382;47.168;16.008;2024-02-26T11:34:38;2.42;;;0.98;;
53497;SDS011;39382;47.168;16.008;2024-02-26T11:37:11;7.50;;;3.65;;
53497;SDS011;39382;47.168;16.008;2024-02-26T11:39:39;6.82;;;3.25;;
53497;SDS011;39382;47.168;16.008;2024-02-26T11:42:08;4.85;;;3.08;;
53497;SDS011;39382;47.168;16.008;2024-02-26T11:44:34;3.63;;;2.58;;
53497;SDS011;39382;47.168;16.008;2024-02-26T11:47:13;5.68;;;2.40;;
53497;SDS011;39382;47.168;16.008;2024-02-26T11:49:48;0.73;;;0.55;;
53497;SDS011;39382;47.168;16.008;2024-02-26T11:52:14;2.40;;;1.42;;
53497;SDS011;39382;47.168;16.008;2024-02-26T11:54:45;1.77;;;0.95;;
53497;SDS011;39382;47.168;16.008;2024-02-26T11:59:48;1.02;;;0.70;;
53497;SDS011;39382;47.168;16.008;2024-02-26T12:05:09;3.80;;;0.40;;
53497;SDS011;39382;47.168;16.008;2024-02-26T12:07:39;0.90;;;0.47;;
53497;SDS011;39382;47.168;16.008;2024-02-26T12:10:15;2.05;;;0.57;;
53497;SDS011;39382;47.168;16.008;2024-02-26T12:15:36;4.05;;;0.47;;
53497;SDS011;39382;47.168;16.008;2024-02-26T12:18:08;0.73;;;0.45;;
53497;SDS011;39382;47.168;16.008;2024-02-26T12:20:36;2.40;;;0.80;;
53497;SDS011;39382;47.168;16.008;2024-02-26T12:23:05;2.22;;;0.70;;
53497;SDS011;39382;47.168;16.008;2024-02-26T12:25:31;4.63;;;1.80;;
53497;SDS011;39382;47.168;16.008;2024-02-26T12:27:58;4.15;;;2.08;;
53497;SDS011;39382;47.168;16.008;2024-02-26T12:30:24;15.88;;;9.48;;
53497;SDS011;39382;47.168;16.008;2024-02-26T12:32:52;4.10;;;2.67;;
53497;SDS011;39382;47.168;16.008;2024-02-26T12:35:22;15.95;;;10.43;;
53497;SDS011;39382;47.168;16.008;2024-02-26T12:37:49;7.63;;;5.05;;
53497;SDS011;39382;47.168;16.008;2024-02-26T12:40:16;2.65;;;1.40;;
53497;SDS011;39382;47.168;16.008;2024-02-26T12:42:42;1.08;;;1.00;;
53497;SDS011;39382;47.168;16.008;2024-02-26T12:45:12;3.05;;;0.98;;
53497;SDS011;39382;47.168;16.008;2024-02-26T12:47:39;0.55;;;0.47;;
53497;SDS011;39382;47.168;16.008;2024-02-26T12:50:06;10.80;;;5.50;;
53497;SDS011;39382;47.168;16.008;2024-02-26T12:52:33;8.45;;;5.57;;
53497;SDS011;39382;47.168;16.008;2024-02-26T12:55:03;13.75;;;8.15;;
53497;SDS011;39382;47.168;16.008;2024-02-26T12:57:31;8.77;;;5.88;;
53497;SDS011;39382;47.168;16.008;2024-02-26T12:59:58;9.52;;;6.13;;
53497;SDS011;39382;47.168;16.008;2024-02-26T13:02:28;24.38;;;13.27;;
53497;SDS011;39382;47.168;16.008;2024-02-26T13:04:55;13.38;;;7.45;;
53497;SDS011;39382;47.168;16.008;2024-02-26T13:07:22;5.25;;;4.75;;
53497;SDS011;39382;47.168;16.008;2024-02-26T13:09:48;1.23;;;1.13;;
53497;SDS011;39382;47.168;16.008;2024-02-26T13:12:16;2.80;;;0.93;;
53497;SDS011;39382;47.168;16.008;2024-02-26T13:14:42;0.70;;;0.70;;
53497;SDS011;39382;47.168;16.008;2024-02-26T13:17:07;0.52;;;0.50;;
53497;SDS011;39382;47.168;16.008;2024-02-26T13:19:35;4.35;;;1.23;;
53497;SDS011;39382;47.168;16.008;2024-02-26T13:22:06;0.68;;;0.38;;
53497;SDS011;39382;47.168;16.008;2024-02-26T13:24:35;0.75;;;0.60;;
53497;SDS011;39382;47.168;16.008;2024-02-26T13:27:02;0.50;;;0.43;;
53497;SDS011;39382;47.168;16.008;2024-02-26T13:29:30;1.50;;;0.85;;
53497;SDS011;39382;47.168;16.008;2024-02-26T13:31:57;3.67;;;0.43;;
53497;SDS011;39382;47.168;16.008;2024-02-26T13:34:26;3.65;;;0.55;;
53497;SDS011;39382;47.168;16.008;2024-02-26T13:36:53;0.63;;;0.60;;
53497;SDS011;39382;47.168;16.008;2024-02-26T13:39:23;1.48;;;0.32;;
53497;SDS011;39382;47.168;16.008;2024-02-26T13:41:50;2.10;;;1.10;;
53497;SDS011;39382;47.168;16.008;2024-02-26T13:44:17;2.70;;;1.50;;
53497;SDS011;39382;47.168;16.008;2024-02-26T13:46:43;1.40;;;1.30;;
53497;SDS011;39382;47.168;16.008;2024-02-26T13:49:09;1.02;;;0.70;;
53497;SDS011;39382;47.168;16.008;2024-02-26T13:51:36;1.25;;;1.15;;
53497;SDS011;39382;47.168;16.008;2024-02-26T13:54:02;0.70;;;0.70;;
53497;SDS011;39382;47.168;16.008;2024-02-26T13:56:27;0.88;;;0.80;;
53497;SDS011;39382;47.168;16.008;2024-02-26T13:58:53;3.75;;;1.27;;
53497;SDS011;39382;47.168;16.008;2024-02-26T14:01:19;2.80;;;2.28;;
53497;SDS011;39382;47.168;16.008;2024-02-26T14:03:44;3.15;;;1.20;;
53497;SDS011;39382;47.168;16.008;2024-02-26T14:06:10;1.95;;;0.73;;
53497;SDS011;39382;47.168;16.008;2024-02-26T14:08:36;1.75;;;0.68;;
53497;SDS011;39382;47.168;16.008;2024-02-26T14:11:02;0.47;;;0.47;;
53497;SDS011;39382;47.168;16.008;2024-02-26T14:13:28;0.73;;;0.57;;
53497;SDS011;39382;47.168;16.008;2024-02-26T14:15:53;1.45;;;0.60;;
53497;SDS011;39382;47.168;16.008;2024-02-26T14:18:19;0.60;;;0.60;;
53497;SDS011;39382;47.168;16.008;2024-02-26T14:20:45;9.70;;;2.35;;
53497;SDS011;39382;47.168;16.008;2024-02-26T14:23:10;14.75;;;5.72;;
53497;SDS011;39382;47.168;16.008;2024-02-26T14:25:36;8.23;;;3.53;;
53497;SDS011;39382;47.168;16.008;2024-02-26T14:28:02;2.45;;;1.30;;
53497;SDS011;39382;47.168;16.008;2024-02-26T14:30:28;2.08;;;1.10;;
53497;SDS011;39382;47.168;16.008;2024-02-26T14:32:54;4.55;;;2.70;;
53497;SDS011;39382;47.168;16.008;2024-02-26T14:35:20;2.90;;;1.90;;
53497;SDS011;39382;47.168;16.008;2024-02-26T14:37:45;2.80;;;1.02;;